createdAt,value
2022-11-14T00:06:52.982Z,102.53
2022-11-14T00:37:20.080Z,93.90
2022-11-14T01:07:46.945Z,101.53
2022-11-14T01:38:18.081Z,105.43
2022-11-14T02:08:46.670Z,100.90
2022-11-14T02:39:18.819Z,72.77
2022-11-14T03:09:54.457Z,94.77
2022-11-14T03:40:21.649Z,70.07
2022-11-14T04:10:50.470Z,81.83
2022-11-14T04:41:17.960Z,79.23
2022-11-14T05:11:47.101Z,58.47
2022-11-14T05:42:17.007Z,50.80
2022-11-14T06:12:44.000Z,73.23
2022-11-14T06:43:11.153Z,46.97
2022-11-14T07:13:39.158Z,55.10
2022-11-14T07:44:06.747Z,62.63
2022-11-14T08:14:33.705Z,79.93
2022-11-14T08:45:00.729Z,67.57
2022-11-14T09:15:27.849Z,87.73
2022-11-14T09:45:56.513Z,48.53
2022-11-14T10:16:42.178Z,55.70
2022-11-14T10:47:17.429Z,61.40
2022-11-14T11:17:57.868Z,49.60
2022-11-14T11:48:40.028Z,63.67
2022-11-14T12:19:37.988Z,57.60
2022-11-14T12:50:42.412Z,61.23
2022-11-14T13:21:35.491Z,47.07
2022-11-14T13:52:11.238Z,66.77
2022-11-14T14:22:45.261Z,62.10
2022-11-14T14:53:23.528Z,48.47
2022-11-14T15:24:05.178Z,56.67
2022-11-14T15:54:34.837Z,67.03
2022-11-14T16:25:04.570Z,82.40
2022-11-14T16:55:31.786Z,251.98
2022-11-14T17:26:04.393Z,176.47
2022-11-14T17:56:34.761Z,159.83
2022-11-14T18:27:01.890Z,118.37
2022-11-14T18:57:29.796Z,110.37
2022-11-14T19:27:57.333Z,201.43
2022-11-14T19:58:32.175Z,155.97
2022-11-14T20:29:07.293Z,177.60
2022-11-14T20:59:34.407Z,175.47
2022-11-14T21:30:04.018Z,138.87
2022-11-14T22:00:31.141Z,99.67
2022-11-14T22:31:16.006Z,126.30
2022-11-14T23:01:48.080Z,119.83
2022-11-14T23:32:19.073Z,121.13
